Time;durP1;ratioP1;P1;durP2;ratioP2;P2;SDS_P1;SDS_P2;PMS_P1;PMS_P2;Temp;Humidity;BMP_temperature;BMP_pressure;BME280_temperature;BME280_humidity;BME280_pressure;Samples;Min_cycle;Max_cycle;Signal;HPM_P1;HPM_P2
2023/10/02 00:00:30;;;;;;;3.45;2.67;;;;;;;;;;5910345;28;20093;-75
2023/10/02 00:03:21;;;;;;;4.55;2.58;;;;;;;;;;5899241;28;20056;-75
2023/10/02 00:06:16;;;;;;;3.90;2.45;;;;;;;;;;5903979;28;20037;-73
2023/10/02 00:09:07;;;;;;;2.60;2.00;;;;;;;;;;5893217;28;20491;-73
2023/10/02 00:12:01;;;;;;;3.97;2.28;;;;;;;;;;5910691;28;20040;-73
2023/10/02 00:14:53;;;;;;;7.07;2.05;;;;;;;;;;5910626;28;20392;-73
2023/10/02 00:17:44;;;;;;;2.08;1.73;;;;;;;;;;5909926;28;20127;-75
2023/10/02 00:20:38;;;;;;;7.07;2.20;;;;;;;;;;5909900;28;20075;-73
2023/10/02 00:23:29;;;;;;;16.33;2.42;;;;;;;;;;5909813;28;20496;-73
2023/10/02 00:26:20;;;;;;;3.08;2.40;;;;;;;;;;5909478;28;20056;-74
2023/10/02 00:29:11;;;;;;;6.38;2.70;;;;;;;;;;5909989;28;20506;-73
2023/10/02 00:32:10;;;;;;;5.38;2.50;;;;;;;;;;5910156;28;20559;-73
2023/10/02 00:35:03;;;;;;;8.93;2.22;;;;;;;;;;5902082;28;20048;-73
2023/10/02 00:37:54;;;;;;;1.80;1.33;;;;;;;;;;5910348;28;20040;-73
2023/10/02 00:40:46;;;;;;;3.97;2.30;;;;;;;;;;5909793;28;20364;-74
2023/10/02 00:43:45;;;;;;;2.90;2.17;;;;;;;;;;5909593;28;20055;-74
2023/10/02 00:46:42;;;;;;;6.85;2.67;;;;;;;;;;5909706;28;20840;-73
2023/10/02 00:49:35;;;;;;;7.50;3.35;;;;;;;;;;5904873;28;20149;-73
2023/10/02 00:52:26;;;;;;;2.40;1.92;;;;;;;;;;5892223;28;20044;-74
2023/10/02 00:55:20;;;;;;;3.90;1.92;;;;;;;;;;5892149;28;20479;-74
2023/10/02 00:58:15;;;;;;;4.78;2.33;;;;;;;;;;5913782;28;20071;-73
2023/10/02 01:01:06;;;;;;;2.13;1.55;;;;;;;;;;5913739;28;20048;-75
2023/10/02 01:04:09;;;;;;;2.42;1.63;;;;;;;;;;5879906;28;20053;-75
2023/10/02 01:07:11;;;;;;;3.83;1.58;;;;;;;;;;5897063;28;20045;-74
2023/10/02 01:10:09;;;;;;;3.53;2.08;;;;;;;;;;5913486;28;20102;-73
2023/10/02 01:13:05;;;;;;;4.38;2.80;;;;;;;;;;5897524;28;20119;-73
2023/10/02 01:15:59;;;;;;;4.28;1.40;;;;;;;;;;5913630;28;20044;-73
2023/10/02 01:18:52;;;;;;;4.82;2.72;;;;;;;;;;5895968;28;20048;-73
2023/10/02 01:21:45;;;;;;;2.72;2.05;;;;;;;;;;5913425;28;20051;-74
2023/10/02 01:24:36;;;;;;;6.22;2.38;;;;;;;;;;5913168;28;20403;-74
2023/10/02 01:27:40;;;;;;;2.17;1.73;;;;;;;;;;5913151;28;20041;-75
2023/10/02 01:30:31;;;;;;;3.90;2.83;;;;;;;;;;5897276;28;20064;-75
2023/10/02 01:33:26;;;;;;;3.45;2.30;;;;;;;;;;5912340;28;20044;-73
2023/10/02 01:36:19;;;;;;;5.35;2.33;;;;;;;;;;5895544;28;20467;-74
2023/10/02 01:39:16;;;;;;;9.90;2.42;;;;;;;;;;5912754;28;20134;-74
2023/10/02 01:42:10;;;;;;;2.53;1.95;;;;;;;;;;5912872;28;20656;-73
2023/10/02 01:45:02;;;;;;;2.42;1.52;;;;;;;;;;5912716;28;20048;-75
2023/10/02 01:47:53;;;;;;;2.03;1.55;;;;;;;;;;5913058;28;20044;-74
2023/10/02 01:50:43;;;;;;;3.53;1.88;;;;;;;;;;5912823;28;20045;-76
2023/10/02 01:53:37;;;;;;;8.88;2.33;;;;;;;;;;5911435;28;20367;-75
2023/10/02 01:56:30;;;;;;;6.63;2.17;;;;;;;;;;5895285;28;20043;-73
2023/10/02 01:59:21;;;;;;;4.03;2.45;;;;;;;;;;5894879;28;20053;-74
2023/10/02 02:02:12;;;;;;;10.30;2.65;;;;;;;;;;5912315;28;20100;-73
2023/10/02 02:05:04;;;;;;;4.32;2.25;;;;;;;;;;5912158;28;20103;-74
2023/10/02 02:07:55;;;;;;;4.60;2.58;;;;;;;;;;5911584;28;20041;-74
2023/10/02 02:10:46;;;;;;;2.55;1.77;;;;;;;;;;5912466;28;20103;-75
2023/10/02 02:13:44;;;;;;;5.55;2.28;;;;;;;;;;5911906;28;20044;-72
2023/10/02 02:16:35;;;;;;;5.32;2.80;;;;;;;;;;5912287;28;20048;-73
2023/10/02 02:19:26;;;;;;;3.63;1.83;;;;;;;;;;5911796;28;20036;-73
2023/10/02 02:22:26;;;;;;;4.10;2.17;;;;;;;;;;5894118;28;20496;-75
2023/10/02 02:25:26;;;;;;;9.75;2.78;;;;;;;;;;5911547;28;20048;-73
2023/10/02 02:28:17;;;;;;;2.25;1.35;;;;;;;;;;5911254;28;20041;-74
2023/10/02 02:31:29;;;;;;;9.02;1.98;;;;;;;;;;5911858;28;20392;-73
2023/10/02 02:34:20;;;;;;;3.53;1.88;;;;;;;;;;5911283;28;20064;-74
2023/10/02 02:37:11;;;;;;;3.28;1.63;;;;;;;;;;5911501;28;20376;-73
2023/10/02 02:43:19;;;;;;;5.03;2.05;;;;;;;;;;5896116;28;20147;-73
2023/10/02 02:46:17;;;;;;;10.60;2.78;;;;;;;;;;5911469;28;20041;-74
2023/10/02 02:49:11;;;;;;;7.90;1.55;;;;;;;;;;5911277;28;20488;-73
2023/10/02 02:52:01;;;;;;;3.28;2.42;;;;;;;;;;5911398;28;20102;-73
2023/10/02 02:55:05;;;;;;;6.80;2.10;;;;;;;;;;5911344;28;20152;-74
2023/10/02 02:57:56;;;;;;;3.42;2.05;;;;;;;;;;5894595;28;20051;-74
2023/10/02 03:00:46;;;;;;;3.47;2.10;;;;;;;;;;5883354;28;20389;-74
2023/10/02 03:03:41;;;;;;;10.27;1.60;;;;;;;;;;5910733;28;20483;-73
2023/10/02 03:06:35;;;;;;;3.15;1.73;;;;;;;;;;5889540;28;20052;-74
2023/10/02 03:09:25;;;;;;;3.25;2.13;;;;;;;;;;5897369;28;20051;-75
2023/10/02 03:12:17;;;;;;;9.48;3.00;;;;;;;;;;5909982;28;20049;-75
2023/10/02 03:15:12;;;;;;;3.38;2.08;;;;;;;;;;5894152;28;20045;-73
2023/10/02 03:18:22;;;;;;;2.60;1.80;;;;;;;;;;5909294;28;20125;-74
2023/10/02 03:21:21;;;;;;;2.47;2.28;;;;;;;;;;5909963;28;20498;-73
2023/10/02 03:24:18;;;;;;;3.17;2.47;;;;;;;;;;5909771;28;20044;-75
2023/10/02 03:27:10;;;;;;;2.72;1.55;;;;;;;;;;5910944;28;20040;-72
2023/10/02 03:30:03;;;;;;;4.15;2.25;;;;;;;;;;5910726;28;20044;-74
2023/10/02 03:32:54;;;;;;;3.10;2.08;;;;;;;;;;5911092;28;20079;-73
2023/10/02 03:35:58;;;;;;;3.88;2.10;;;;;;;;;;5910841;28;20102;-74
2023/10/02 03:38:49;;;;;;;7.28;2.17;;;;;;;;;;5894119;28;20139;-74
2023/10/02 03:41:48;;;;;;;17.33;3.20;;;;;;;;;;5910834;28;20040;-74
2023/10/02 03:44:45;;;;;;;6.32;2.53;;;;;;;;;;5910590;28;20041;-74
2023/10/02 03:47:37;;;;;;;5.07;2.25;;;;;;;;;;5893263;28;20481;-74
2023/10/02 03:50:30;;;;;;;4.30;2.22;;;;;;;;;;5910522;28;20037;-75
2023/10/02 03:53:30;;;;;;;;;;;;;;;;;;5910688;28;20120;-73
2023/10/02 03:56:36;;;;;;;11.38;2.10;;;;;;;;;;5910242;28;20121;-73
2023/10/02 03:59:32;;;;;;;7.90;2.85;;;;;;;;;;5910376;28;20127;-73
2023/10/02 04:02:26;;;;;;;14.35;3.03;;;;;;;;;;5892987;28;20470;-73
2023/10/02 04:05:32;;;;;;;3.30;2.50;;;;;;;;;;5910331;28;20041;-75
2023/10/02 04:08:36;;;;;;;4.30;2.13;;;;;;;;;;5892381;28;20502;-73
2023/10/02 04:11:27;;;;;;;4.47;2.70;;;;;;;;;;5910469;28;20060;-74
2023/10/02 04:14:32;;;;;;;2.78;2.00;;;;;;;;;;5910317;28;20060;-74
2023/10/02 04:17:25;;;;;;;3.92;2.63;;;;;;;;;;5894252;28;20056;-73
2023/10/02 04:20:27;;;;;;;7.05;3.13;;;;;;;;;;5910246;28;20048;-75
2023/10/02 04:23:23;;;;;;;3.92;2.17;;;;;;;;;;5910101;28;20048;-74
2023/10/02 04:26:20;;;;;;;3.03;1.98;;;;;;;;;;5910301;28;20051;-73
2023/10/02 04:32:18;;;;;;;4.03;2.42;;;;;;;;;;5913355;28;20151;-75
2023/10/02 04:38:48;;;;;;;2.65;2.20;;;;;;;;;;5914505;28;20518;-74
2023/10/02 04:41:31;;;;;;;5.38;2.80;;;;;;;;;;5914406;28;20056;-74
2023/10/02 04:44:22;;;;;;;3.42;2.20;;;;;;;;;;5914144;28;20399;-73
2023/10/02 04:47:18;;;;;;;3.35;2.03;;;;;;;;;;5914053;28;20051;-74
2023/10/02 04:53:19;;;;;;;1.60;1.45;;;;;;;;;;5914663;28;20045;-73
2023/10/02 04:59:09;;;;;;;7.32;2.45;;;;;;;;;;5914087;28;20036;-75
2023/10/02 05:02:20;;;;;;;3.55;2.38;;;;;;;;;;5914362;28;20425;-73
2023/10/02 05:05:14;;;;;;;5.68;3.03;;;;;;;;;;5913557;28;20125;-74
2023/10/02 05:08:10;;;;;;;5.40;3.33;;;;;;;;;;5913793;28;20047;-74
2023/10/02 05:11:08;;;;;;;12.00;2.92;;;;;;;;;;5913858;28;20041;-75
2023/10/02 05:13:59;;;;;;;3.30;2.15;;;;;;;;;;5896949;28;20357;-74
2023/10/02 05:16:50;;;;;;;4.10;2.53;;;;;;;;;;5937209;28;20067;-73
2023/10/02 05:20:04;;;;;;;6.93;3.33;;;;;;;;;;5937035;28;20048;-73
2023/10/02 05:22:58;;;;;;;3.00;2.70;;;;;;;;;;5936939;28;20143;-73
2023/10/02 05:25:50;;;;;;;2.78;2.30;;;;;;;;;;5937217;28;20040;-74
2023/10/02 05:28:44;;;;;;;3.63;2.88;;;;;;;;;;5936750;28;20059;-75
2023/10/02 05:31:41;;;;;;;12.15;2.85;;;;;;;;;;5919458;28;20048;-75
2023/10/02 05:34:33;;;;;;;10.55;2.65;;;;;;;;;;5936712;28;20044;-73
2023/10/02 05:37:30;;;;;;;15.15;3.33;;;;;;;;;;5936790;28;20054;-73
2023/10/02 05:43:21;;;;;;;2.50;2.00;;;;;;;;;;5936435;28;20052;-75
2023/10/02 05:46:16;;;;;;;11.30;1.75;;;;;;;;;;5936329;28;20048;-74
2023/10/02 05:49:07;;;;;;;5.40;2.78;;;;;;;;;;5918258;28;20063;-73
2023/10/02 05:52:00;;;;;;;10.75;2.85;;;;;;;;;;5937016;28;20048;-73
2023/10/02 05:54:54;;;;;;;2.78;2.08;;;;;;;;;;5936693;28;20120;-73
2023/10/02 05:57:45;;;;;;;3.22;1.90;;;;;;;;;;5936370;28;20044;-74
2023/10/02 06:00:38;;;;;;;3.38;1.73;;;;;;;;;;5935871;28;20043;-73
2023/10/02 06:03:37;;;;;;;9.80;3.03;;;;;;;;;;5936153;28;20388;-73
2023/10/02 06:06:35;;;;;;;6.93;3.30;;;;;;;;;;5935754;28;20051;-74
2023/10/02 06:09:43;;;;;;;;;;;;;;;;;;5936281;28;20047;-73
2023/10/02 06:12:43;;;;;;;4.40;2.88;;;;;;;;;;5935882;28;19920;-73
2023/10/02 06:15:48;;;;;;;5.70;2.92;;;;;;;;;;5935758;28;20052;-73
2023/10/02 06:18:41;;;;;;;5.07;3.60;;;;;;;;;;5935565;28;20478;-74
2023/10/02 06:24:45;;;;;;;2.53;1.73;;;;;;;;;;5935513;28;20040;-73
2023/10/02 06:27:41;;;;;;;2.58;1.58;;;;;;;;;;5935776;28;20121;-73
2023/10/02 06:30:32;;;;;;;4.15;2.53;;;;;;;;;;5935349;28;20074;-74
2023/10/02 06:33:23;;;;;;;3.97;2.58;;;;;;;;;;5917316;28;20044;-75
2023/10/02 06:36:14;;;;;;;2.80;2.05;;;;;;;;;;5935204;28;20086;-73
2023/10/02 06:39:08;;;;;;;3.40;2.22;;;;;;;;;;5917445;28;20047;-75
2023/10/02 06:42:05;;;;;;;2.55;1.92;;;;;;;;;;5935705;28;20044;-74
2023/10/02 06:44:59;;;;;;;16.05;2.35;;;;;;;;;;5917527;28;20047;-72
2023/10/02 06:47:50;;;;;;;10.48;2.33;;;;;;;;;;5935135;28;20055;-73
2023/10/02 06:50:41;;;;;;;9.57;2.60;;;;;;;;;;5935122;28;20048;-73
2023/10/02 06:53:31;;;;;;;3.00;2.05;;;;;;;;;;5934226;28;20044;-73
2023/10/02 06:56:22;;;;;;;4.45;3.05;;;;;;;;;;5934802;28;20606;-73
2023/10/02 06:59:13;;;;;;;4.53;2.45;;;;;;;;;;5934856;28;20044;-75
2023/10/02 07:02:06;;;;;;;2.50;1.90;;;;;;;;;;5934726;28;20131;-73
2023/10/02 07:04:57;;;;;;;8.50;2.72;;;;;;;;;;5935189;28;20044;-75
2023/10/02 07:07:58;;;;;;;2.05;1.70;;;;;;;;;;5934654;28;20074;-74
2023/10/02 07:10:51;;;;;;;9.38;3.47;;;;;;;;;;5934887;28;20500;-73
2023/10/02 07:13:51;;;;;;;4.35;2.75;;;;;;;;;;5916765;28;20051;-74
2023/10/02 07:16:42;;;;;;;9.23;2.75;;;;;;;;;;5934327;28;20123;-73
2023/10/02 07:19:38;;;;;;;3.85;2.47;;;;;;;;;;5934440;28;20046;-73
2023/10/02 07:22:29;;;;;;;6.70;2.47;;;;;;;;;;5934477;28;20396;-74
2023/10/02 07:25:20;;;;;;;4.57;2.65;;;;;;;;;;5934267;28;20044;-74
2023/10/02 07:28:12;;;;;;;5.82;2.38;;;;;;;;;;5934148;28;20055;-73
2023/10/02 07:31:03;;;;;;;4.35;2.78;;;;;;;;;;5934088;28;20048;-74
2023/10/02 07:33:55;;;;;;;5.43;2.75;;;;;;;;;;5934828;28;20064;-74
2023/10/02 07:36:46;;;;;;;14.20;2.78;;;;;;;;;;5934188;28;20086;-73
2023/10/02 07:39:38;;;;;;;8.52;3.53;;;;;;;;;;5934095;28;20052;-74
2023/10/02 07:42:31;;;;;;;5.22;2.70;;;;;;;;;;5934329;28;20185;-74
2023/10/02 07:45:25;;;;;;;7.10;3.05;;;;;;;;;;5933889;28;20051;-73
2023/10/02 07:48:19;;;;;;;8.23;2.58;;;;;;;;;;5934006;28;20048;-75
2023/10/02 07:51:10;;;;;;;2.65;2.03;;;;;;;;;;5933910;28;20127;-74
2023/10/02 07:54:07;;;;;;;6.30;3.35;;;;;;;;;;5933947;28;20056;-73
2023/10/02 07:56:58;;;;;;;4.93;1.83;;;;;;;;;;5934303;28;20047;-74
2023/10/02 07:59:49;;;;;;;4.25;2.47;;;;;;;;;;5933896;28;20044;-73
2023/10/02 08:02:40;;;;;;;9.85;3.40;;;;;;;;;;5933966;28;20444;-73
2023/10/02 08:05:34;;;;;;;4.25;2.42;;;;;;;;;;5934480;28;20046;-72
2023/10/02 08:08:32;;;;;;;4.60;2.55;;;;;;;;;;5920489;28;20067;-72
2023/10/02 08:11:25;;;;;;;5.30;2.67;;;;;;;;;;5938433;28;20044;-73
2023/10/02 08:20:37;;;;;;;5.18;2.30;;;;;;;;;;5938476;28;20052;-73
2023/10/02 08:23:28;;;;;;;11.00;4.13;;;;;;;;;;5938044;28;20158;-72
2023/10/02 08:26:19;;;;;;;7.82;2.75;;;;;;;;;;5938011;28;20131;-73
2023/10/02 08:29:19;;;;;;;5.03;2.88;;;;;;;;;;5938122;28;20060;-73
2023/10/02 08:32:11;;;;;;;7.13;3.72;;;;;;;;;;5938171;28;20044;-74
2023/10/02 08:35:13;;;;;;;5.10;3.58;;;;;;;;;;5938066;28;20391;-74
2023/10/02 08:38:21;;;;;;;4.28;2.13;;;;;;;;;;5938084;28;20048;-74
2023/10/02 08:41:12;;;;;;;5.90;3.63;;;;;;;;;;5938156;28;20048;-73
2023/10/02 08:44:08;;;;;;;3.22;1.92;;;;;;;;;;5937913;28;20047;-73
2023/10/02 08:47:00;;;;;;;26.52;2.53;;;;;;;;;;5938484;28;20491;-74
2023/10/02 08:50:03;;;;;;;4.88;2.03;;;;;;;;;;5937905;28;20159;-73
2023/10/02 08:52:54;;;;;;;3.45;1.98;;;;;;;;;;5938035;28;20130;-73
2023/10/02 08:58:36;;;;;;;5.65;2.40;;;;;;;;;;5937527;28;20478;-72
2023/10/02 09:01:28;;;;;;;9.45;2.70;;;;;;;;;;5937586;28;20495;-74
2023/10/02 09:04:22;;;;;;;5.97;2.78;;;;;;;;;;5937194;28;20036;-74
2023/10/02 09:08:00;;;;;;;4.38;1.45;;;;;;;;;;5937429;28;20376;-72
2023/10/02 09:10:58;;;;;;;5.50;2.38;;;;;;;;;;5924635;28;20395;-73
2023/10/02 09:17:20;;;;;;;3.17;1.63;;;;;;;;;;5921460;28;20447;-72
2023/10/02 09:20:15;;;;;;;4.70;2.13;;;;;;;;;;5936313;28;20398;-73
2023/10/02 09:23:09;;;;;;;3.05;1.48;;;;;;;;;;5919569;28;20040;-72
2023/10/02 09:29:33;;;;;;;3.38;1.73;;;;;;;;;;5886979;28;20063;-72
2023/10/02 09:32:25;;;;;;;3.70;2.00;;;;;;;;;;5886858;28;20158;-72
2023/10/02 09:35:40;;;;;;;6.18;2.38;;;;;;;;;;5928576;28;20051;-73
2023/10/02 09:38:51;;;;;;;2.55;1.25;;;;;;;;;;5923619;28;20055;-73
2023/10/02 09:41:45;;;;;;;4.93;1.70;;;;;;;;;;5936358;28;20116;-73
2023/10/02 09:44:45;;;;;;;4.97;2.03;;;;;;;;;;5936255;28;20036;-73
2023/10/02 09:47:37;;;;;;;4.18;2.42;;;;;;;;;;5936312;28;20048;-72
2023/10/02 09:50:49;;;;;;;15.07;3.03;;;;;;;;;;5936024;28;20044;-74
2023/10/02 09:54:04;;;;;;;15.80;2.28;;;;;;;;;;5918735;28;20044;-73
2023/10/02 09:57:20;;;;;;;7.00;1.48;;;;;;;;;;5936364;28;20067;-74
2023/10/02 10:03:24;;;;;;;5.88;2.17;;;;;;;;;;5920864;28;20052;-73
2023/10/02 10:06:16;;;;;;;1.35;0.70;;;;;;;;;;5936431;28;20056;-72
2023/10/02 10:12:32;;;;;;;4.30;1.83;;;;;;;;;;5935906;28;20470;-74
2023/10/02 10:15:27;;;;;;;7.75;2.60;;;;;;;;;;5935964;28;20048;-73
2023/10/02 10:18:18;;;;;;;1.80;1.25;;;;;;;;;;5918181;28;20080;-72
2023/10/02 10:21:56;;;;;;;1.50;1.20;;;;;;;;;;5935730;28;20054;-75
2023/10/02 10:24:57;;;;;;;2.72;1.90;;;;;;;;;;5935626;28;20509;-73
2023/10/02 10:30:51;;;;;;;2.78;1.25;;;;;;;;;;5935383;28;20185;-72
2023/10/02 10:33:43;;;;;;;5.13;1.70;;;;;;;;;;5935117;28;20051;-75
2023/10/02 10:36:39;;;;;;;5.18;2.60;;;;;;;;;;5935316;28;20048;-72
2023/10/02 10:39:54;;;;;;;4.05;1.45;;;;;;;;;;5917231;28;20052;-73
2023/10/02 10:43:00;;;;;;;2.88;1.60;;;;;;;;;;5917548;28;20067;-73
2023/10/02 10:45:54;;;;;;;3.50;1.33;;;;;;;;;;5935349;28;20102;-72
2023/10/02 10:48:53;;;;;;;8.55;1.50;;;;;;;;;;5935149;28;20479;-74
2023/10/02 10:51:44;;;;;;;2.63;1.65;;;;;;;;;;5918144;28;20411;-73
2023/10/02 10:54:41;;;;;;;8.52;1.38;;;;;;;;;;5934774;28;20102;-72
2023/10/02 10:57:51;;;;;;;6.88;1.52;;;;;;;;;;5920254;28;20117;-74
2023/10/02 11:00:49;;;;;;;4.07;1.42;;;;;;;;;;5934895;28;20051;-74
2023/10/02 11:03:41;;;;;;;2.35;1.63;;;;;;;;;;5916904;28;20047;-74
2023/10/02 11:06:40;;;;;;;2.15;0.77;;;;;;;;;;5934508;28;20044;-74
2023/10/02 11:09:32;;;;;;;4.20;1.05;;;;;;;;;;5934683;28;20055;-74
2023/10/02 11:12:26;;;;;;;1.50;1.27;;;;;;;;;;5934555;28;20051;-74
2023/10/02 11:15:43;;;;;;;4.22;1.38;;;;;;;;;;5916944;28;20044;-75
2023/10/02 11:18:28;;;;;;;4.28;2.15;;;;;;;;;;5934161;28;20050;-74
2023/10/02 11:21:23;;;;;;;8.48;1.42;;;;;;;;;;5916165;28;20059;-76
2023/10/02 11:24:21;;;;;;;3.53;1.25;;;;;;;;;;5934162;28;20039;-73
2023/10/02 11:27:15;;;;;;;1.63;0.60;;;;;;;;;;5934104;28;20044;-73
2023/10/02 11:30:07;;;;;;;1.88;0.98;;;;;;;;;;5934197;28;20039;-74
2023/10/02 11:33:04;;;;;;;31.75;1.80;;;;;;;;;;5901376;28;20098;-74
2023/10/02 11:35:58;;;;;;;5.90;1.27;;;;;;;;;;5907641;28;20052;-74
2023/10/02 11:38:51;;;;;;;8.77;1.23;;;;;;;;;;5916146;28;20040;-74
2023/10/02 11:41:43;;;;;;;3.08;1.27;;;;;;;;;;5933761;28;20052;-73
2023/10/02 11:44:35;;;;;;;3.22;1.08;;;;;;;;;;5915688;28;20044;-74
2023/10/02 11:47:28;;;;;;;6.95;1.30;;;;;;;;;;5915614;28;20036;-75
2023/10/02 11:50:19;;;;;;;2.42;1.10;;;;;;;;;;5933567;28;20050;-74
2023/10/02 11:53:11;;;;;;;4.40;1.75;;;;;;;;;;5933735;28;20498;-74
2023/10/02 11:56:02;;;;;;;5.07;1.20;;;;;;;;;;5933775;28;20501;-73
2023/10/02 11:58:54;;;;;;;2.95;1.05;;;;;;;;;;5934321;28;20040;-75
2023/10/02 12:01:47;;;;;;;1.10;0.88;;;;;;;;;;5915680;28;20046;-73
2023/10/02 12:04:38;;;;;;;1.60;1.13;;;;;;;;;;5933747;28;20043;-73
2023/10/02 12:07:29;;;;;;;4.70;1.52;;;;;;;;;;5933565;28;20082;-74
2023/10/02 12:10:20;;;;;;;2.38;1.30;;;;;;;;;;5933329;28;20044;-74
2023/10/02 12:13:11;;;;;;;3.92;1.70;;;;;;;;;;5923365;28;20047;-74
2023/10/02 12:16:02;;;;;;;2.35;1.10;;;;;;;;;;5932455;28;20052;-74
2023/10/02 12:18:53;;;;;;;3.47;1.33;;;;;;;;;;5933790;28;20070;-75
2023/10/02 12:21:44;;;;;;;1.70;1.27;;;;;;;;;;5914830;28;20495;-74
2023/10/02 12:24:51;;;;;;;2.50;1.40;;;;;;;;;;5919240;28;20365;-76
2023/10/02 12:27:42;;;;;;;1.85;1.20;;;;;;;;;;5905968;28;20052;-74
2023/10/02 12:30:36;;;;;;;3.25;0.98;;;;;;;;;;5908892;28;20048;-74
2023/10/02 12:33:26;;;;;;;2.38;0.98;;;;;;;;;;5909207;28;20036;-74
2023/10/02 12:36:19;;;;;;;4.28;1.08;;;;;;;;;;5907471;28;20499;-74
2023/10/02 12:39:13;;;;;;;0.82;0.68;;;;;;;;;;5885591;28;20044;-75
2023/10/02 12:42:05;;;;;;;7.80;1.55;;;;;;;;;;5894201;28;20040;-73
2023/10/02 12:44:56;;;;;;;13.77;1.08;;;;;;;;;;5893994;28;20088;-74
2023/10/02 12:47:47;;;;;;;1.73;0.80;;;;;;;;;;5908518;28;20045;-72
2023/10/02 12:50:42;;;;;;;3.40;1.50;;;;;;;;;;5896304;28;20098;-74
2023/10/02 12:53:36;;;;;;;4.03;1.45;;;;;;;;;;5901872;28;20507;-75
2023/10/02 12:56:27;;;;;;;5.85;1.55;;;;;;;;;;5900718;28;20472;-75
2023/10/02 12:59:18;;;;;;;3.47;1.05;;;;;;;;;;5900696;28;20045;-74
2023/10/02 13:02:09;;;;;;;5.47;1.05;;;;;;;;;;5913713;28;20055;-75
2023/10/02 13:05:04;;;;;;;4.82;1.02;;;;;;;;;;5913004;28;20094;-74
2023/10/02 13:07:56;;;;;;;3.58;1.35;;;;;;;;;;5913555;28;20048;-74
2023/10/02 13:10:48;;;;;;;9.20;1.75;;;;;;;;;;5912834;28;20178;-74
2023/10/02 13:13:44;;;;;;;3.10;1.77;;;;;;;;;;5912945;28;20329;-74
2023/10/02 13:16:42;;;;;;;1.85;1.10;;;;;;;;;;5912422;28;20044;-74
2023/10/02 13:19:33;;;;;;;2.70;0.73;;;;;;;;;;5911578;28;20483;-74
2023/10/02 13:22:24;;;;;;;2.10;1.08;;;;;;;;;;5912006;28;20123;-74
2023/10/02 13:25:15;;;;;;;1.52;1.08;;;;;;;;;;5912873;28;20048;-74
2023/10/02 13:28:06;;;;;;;1.10;0.75;;;;;;;;;;5911840;28;20498;-74
2023/10/02 13:30:56;;;;;;;6.90;1.23;;;;;;;;;;5912842;28;20604;-73
2023/10/02 13:33:51;;;;;;;4.43;1.75;;;;;;;;;;5912754;28;20456;-74
2023/10/02 13:36:42;;;;;;;2.58;1.05;;;;;;;;;;5912317;28;20053;-73
2023/10/02 13:39:38;;;;;;;3.40;1.38;;;;;;;;;;5911961;28;20132;-74
2023/10/02 13:42:29;;;;;;;4.22;1.42;;;;;;;;;;5912296;28;20057;-73
2023/10/02 13:45:21;;;;;;;4.03;1.20;;;;;;;;;;5912217;28;22670;-73
2023/10/02 13:48:13;;;;;;;2.45;1.00;;;;;;;;;;5894351;28;20055;-75
2023/10/02 13:51:08;;;;;;;4.05;1.48;;;;;;;;;;5893932;28;20044;-75
2023/10/02 13:53:59;;;;;;;3.17;1.25;;;;;;;;;;5893919;28;20056;-74
2023/10/02 13:56:50;;;;;;;1.88;1.30;;;;;;;;;;5912675;28;20041;-74
2023/10/02 13:59:41;;;;;;;6.22;1.73;;;;;;;;;;5912342;28;20060;-74
2023/10/02 14:02:32;;;;;;;4.97;1.60;;;;;;;;;;5912003;28;20045;-74
2023/10/02 14:05:29;;;;;;;1.52;0.85;;;;;;;;;;5911501;28;20109;-74
2023/10/02 14:08:20;;;;;;;2.17;1.10;;;;;;;;;;5912185;28;20052;-74
2023/10/02 14:11:21;;;;;;;2.28;1.15;;;;;;;;;;5912246;28;20056;-73
2023/10/02 14:14:12;;;;;;;2.58;1.58;;;;;;;;;;5886234;28;20041;-74
2023/10/02 14:17:03;;;;;;;7.30;1.23;;;;;;;;;;5912040;28;20138;-73
2023/10/02 14:19:54;;;;;;;2.45;0.88;;;;;;;;;;5911923;28;20096;-73
2023/10/02 14:22:47;;;;;;;1.90;1.25;;;;;;;;;;5911801;28;20045;-74
2023/10/02 14:25:40;;;;;;;2.83;1.33;;;;;;;;;;5911741;28;20051;-74
2023/10/02 14:28:31;;;;;;;13.13;1.33;;;;;;;;;;5911500;28;20494;-75
2023/10/02 14:31:29;;;;;;;2.83;1.35;;;;;;;;;;5911705;28;20060;-73
2023/10/02 14:34:21;;;;;;;3.08;1.58;;;;;;;;;;5911730;28;20079;-74
2023/10/02 14:37:11;;;;;;;2.53;0.80;;;;;;;;;;5911535;28;20127;-74
2023/10/02 14:40:03;;;;;;;2.97;1.10;;;;;;;;;;5911759;28;20051;-74
2023/10/02 14:42:53;;;;;;;3.97;2.00;;;;;;;;;;5911737;28;20044;-74
2023/10/02 14:45:44;;;;;;;13.05;1.30;;;;;;;;;;5911454;28;20044;-75
2023/10/02 14:48:36;;;;;;;5.35;1.58;;;;;;;;;;5911180;28;20479;-73
2023/10/02 14:51:37;;;;;;;2.30;0.88;;;;;;;;;;5911321;28;20059;-74
2023/10/02 14:54:28;;;;;;;2.78;1.35;;;;;;;;;;5911238;28;20037;-74
2023/10/02 14:57:21;;;;;;;2.03;1.15;;;;;;;;;;5911255;28;20044;-74
2023/10/02 15:00:14;;;;;;;1.05;0.90;;;;;;;;;;5910794;28;20048;-74
2023/10/02 15:03:05;;;;;;;1.67;0.98;;;;;;;;;;5911010;28;20179;-74
2023/10/02 15:05:56;;;;;;;3.03;1.38;;;;;;;;;;5911665;28;20048;-74
2023/10/02 15:08:46;;;;;;;3.20;1.55;;;;;;;;;;5910948;28;20051;-74
2023/10/02 15:11:37;;;;;;;3.75;1.23;;;;;;;;;;5910982;28;20052;-74
2023/10/02 15:14:28;;;;;;;2.88;2.15;;;;;;;;;;5910559;28;20040;-74
2023/10/02 15:17:22;;;;;;;3.08;1.63;;;;;;;;;;5910761;28;20076;-74
2023/10/02 15:20:21;;;;;;;1.65;1.20;;;;;;;;;;5910490;28;20488;-73
2023/10/02 15:23:16;;;;;;;1.75;0.95;;;;;;;;;;5889591;28;20040;-73
2023/10/02 15:26:10;;;;;;;5.63;1.77;;;;;;;;;;5906613;28;20381;-73
2023/10/02 15:29:05;;;;;;;24.08;1.55;;;;;;;;;;5909756;28;20118;-73
2023/10/02 15:31:56;;;;;;;2.10;1.67;;;;;;;;;;5910359;28;20048;-73
2023/10/02 15:34:48;;;;;;;2.13;1.63;;;;;;;;;;5909240;28;20506;-73
2023/10/02 15:37:48;;;;;;;4.45;2.30;;;;;;;;;;5910187;28;20043;-74
2023/10/02 15:40:43;;;;;;;12.95;2.13;;;;;;;;;;5911689;28;20483;-74
2023/10/02 15:43:35;;;;;;;3.75;2.03;;;;;;;;;;5897201;28;20056;-74
2023/10/02 15:46:26;;;;;;;6.70;3.45;;;;;;;;;;5894991;28;20127;-74
2023/10/02 15:49:19;;;;;;;3.20;1.73;;;;;;;;;;5894447;28;20150;-74
2023/10/02 15:52:10;;;;;;;3.20;2.20;;;;;;;;;;5899705;28;20399;-72
2023/10/02 15:55:00;;;;;;;3.22;1.88;;;;;;;;;;5907421;28;20044;-76
2023/10/02 15:57:52;;;;;;;4.35;1.58;;;;;;;;;;5908389;28;20411;-73
2023/10/02 16:00:45;;;;;;;2.55;1.75;;;;;;;;;;5885439;28;20323;-73
2023/10/02 16:03:36;;;;;;;4.85;1.63;;;;;;;;;;5906459;28;20052;-73
2023/10/02 16:06:27;;;;;;;2.65;1.48;;;;;;;;;;5909142;28;20047;-74
2023/10/02 16:09:21;;;;;;;1.90;1.10;;;;;;;;;;5910012;28;20052;-73
2023/10/02 16:12:13;;;;;;;3.72;1.90;;;;;;;;;;5892124;28;20064;-74
2023/10/02 16:15:13;;;;;;;2.25;1.65;;;;;;;;;;5909628;28;20400;-73
2023/10/02 16:18:05;;;;;;;3.50;1.60;;;;;;;;;;5910043;28;20135;-73
2023/10/02 16:20:56;;;;;;;2.33;1.17;;;;;;;;;;5910510;28;20102;-74
2023/10/02 16:23:51;;;;;;;4.32;2.05;;;;;;;;;;5909777;28;20055;-74
2023/10/02 16:26:42;;;;;;;4.78;1.33;;;;;;;;;;5886232;28;20072;-74
2023/10/02 16:29:33;;;;;;;5.10;2.00;;;;;;;;;;5891367;28;20052;-73
2023/10/02 16:32:27;;;;;;;1.88;1.42;;;;;;;;;;5907024;28;20044;-73
2023/10/02 16:35:30;;;;;;;5.43;1.45;;;;;;;;;;5896296;28;20056;-73
2023/10/02 16:38:23;;;;;;;2.03;1.23;;;;;;;;;;5890973;28;20051;-74
2023/10/02 16:41:16;;;;;;;2.63;1.50;;;;;;;;;;5897171;28;20047;-73
2023/10/02 16:44:08;;;;;;;1.83;1.45;;;;;;;;;;5913793;28;20040;-73
2023/10/02 16:47:02;;;;;;;2.30;1.73;;;;;;;;;;5914611;28;20558;-74
2023/10/02 16:49:53;;;;;;;3.88;1.67;;;;;;;;;;5914647;28;20045;-73
2023/10/02 16:52:47;;;;;;;9.95;2.03;;;;;;;;;;5913489;28;20076;-73
2023/10/02 16:55:38;;;;;;;4.22;2.17;;;;;;;;;;5912225;28;20048;-73
2023/10/02 16:58:30;;;;;;;3.10;1.65;;;;;;;;;;5898887;28;20467;-73
2023/10/02 17:01:22;;;;;;;2.47;1.83;;;;;;;;;;5901319;28;20053;-74
2023/10/02 17:04:15;;;;;;;4.70;2.83;;;;;;;;;;5905226;28;20048;-74
2023/10/02 17:07:07;;;;;;;3.05;2.22;;;;;;;;;;5904762;28;20559;-73
2023/10/02 17:09:59;;;;;;;2.30;1.58;;;;;;;;;;5896871;28;20041;-74
2023/10/02 17:12:54;;;;;;;5.25;1.92;;;;;;;;;;5913129;28;20044;-73
2023/10/02 17:15:47;;;;;;;5.20;1.38;;;;;;;;;;5912996;28;20055;-74
2023/10/02 17:18:38;;;;;;;2.33;1.80;;;;;;;;;;5912204;28;20043;-73
2023/10/02 17:21:29;;;;;;;2.80;1.63;;;;;;;;;;5870643;28;20049;-73
2023/10/02 17:24:20;;;;;;;4.38;2.90;;;;;;;;;;5892506;28;20056;-73
2023/10/02 17:27:11;;;;;;;3.95;2.55;;;;;;;;;;5890771;28;20060;-73
2023/10/02 17:30:05;;;;;;;12.13;2.50;;;;;;;;;;5904407;28;20053;-74
2023/10/02 17:32:56;;;;;;;14.90;5.80;;;;;;;;;;5897087;28;20047;-75
2023/10/02 17:35:47;;;;;;;6.50;3.60;;;;;;;;;;5904276;28;20037;-72
2023/10/02 17:38:38;;;;;;;4.72;2.95;;;;;;;;;;5898859;28;20071;-75
2023/10/02 17:41:29;;;;;;;6.38;3.53;;;;;;;;;;5901439;28;20079;-74
2023/10/02 17:44:20;;;;;;;7.50;3.78;;;;;;;;;;5901868;28;20488;-77
2023/10/02 17:47:11;;;;;;;5.65;3.15;;;;;;;;;;5899215;28;20049;-75
2023/10/02 17:50:11;;;;;;;7.13;3.58;;;;;;;;;;5902707;28;20067;-73
2023/10/02 17:53:02;;;;;;;8.23;3.38;;;;;;;;;;5877953;28;20092;-74
2023/10/02 17:55:53;;;;;;;7.72;4.18;;;;;;;;;;5913005;28;20060;-74
2023/10/02 17:58:44;;;;;;;5.95;3.30;;;;;;;;;;5912577;28;20052;-73
2023/10/02 18:01:35;;;;;;;7.50;3.95;;;;;;;;;;5910768;28;20056;-73
2023/10/02 18:04:26;;;;;;;8.45;3.55;;;;;;;;;;5893822;28;20115;-74
2023/10/02 18:07:17;;;;;;;9.93;6.50;;;;;;;;;;5912281;28;20047;-74
2023/10/02 18:10:09;;;;;;;14.32;6.97;;;;;;;;;;5911986;28;20054;-73
2023/10/02 18:13:01;;;;;;;12.18;5.72;;;;;;;;;;5912225;28;20059;-73